North Center, New Jersey
Current Conditions -  °F | °C
As of 10:53 AM on Saturday 22 Nov 2014 (Local Time) from KCDW Reporting Station
Clear Clear  
Wind Chill: 29°   Ceiling: Unl
Heat Index: 35°   Visibility: 10mi
Dew Point: 10°   Wind: 8mph
Humidity: 35%   Direction: 250°WSW
Pressure: 30.42"   Gusts: NA
Location:  40.8099°N, 74.187°W
Report Text: KCDW 221553Z AUTO 25007KT 210V290 10SM CLR 02/M12 A3042 RMK AO2 SLP308 T00171122 TSNO
Loading
Personal Weather Stations






























Interactive Weather Map New forecast layout! Learn more

10-Day Weather Forecast

Advertisements
Track Severe Weather on mobile